Time,TemperatureF,DewpointF,PressureIn,WindDirection,WindDirectionDegrees,WindSpeedMPH,WindSpeedGustMPH,Humidity,HourlyPrecipIn,Conditions,Clouds,dailyrainin,SolarRadiationWatts/m^2,SoftwareType,DateUTC
2013-02-15 10:00:00,38.4,34.6,30.12,NE,38,0.0,0.0,86,0.00,,,0.00,250,Wunderground v.1.15,2013-02-15 15:00:00,
2013-02-15 10:05:00,39.2,35.1,30.12,NE,38,0.0,0.0,85,0.00,,,0.00,401,Wunderground v.1.15,2013-02-15 15:05:00,
2013-02-15 10:10:00,40.2,35.8,30.12,NE,40,0.0,1.0,84,0.00,,,0.00,309,Wunderground v.1.15,2013-02-15 15:10:00,
2013-02-15 10:15:00,41.1,36.6,30.12,NE,53,0.0,1.0,84,0.00,,,0.00,373,Wunderground v.1.15,2013-02-15 15:15:00,
2013-02-15 10:20:00,41.7,36.9,30.12,NE,53,0.0,0.0,83,0.00,,,0.00,446,Wunderground v.1.15,2013-02-15 15:20:00,
2013-02-15 10:30:00,43.4,37.6,30.11,NE,53,0.0,0.0,80,0.00,,,0.00,517,Wunderground v.1.15,2013-02-15 15:30:00,
2013-02-15 10:35:00,44.4,38.0,30.11,ENE,63,1.0,1.0,78,0.00,,,0.00,490,Wunderground v.1.15,2013-02-15 15:35:00,
2013-02-15 10:40:00,45.3,38.5,30.10,ENE,63,1.0,1.0,77,0.00,,,0.00,455,Wunderground v.1.15,2013-02-15 15:40:00,
2013-02-15 10:45:00,46.1,38.6,30.10,ENE,63,1.0,1.0,75,0.00,,,0.00,301,Wunderground v.1.15,2013-02-15 15:45:00,
2013-02-15 10:50:00,47.1,39.2,30.10,East,88,1.0,3.0,74,0.00,,,0.00,371,Wunderground v.1.15,2013-02-15 15:50:00,
2013-02-15 10:55:00,48.5,38.8,30.10,South,183,1.0,3.0,69,0.00,,,0.00,139,Wunderground v.1.15,2013-02-15 15:55:00,
2013-02-15 11:05:00,50.5,38.8,30.10,South,174,2.0,3.0,64,0.00,,,0.00,457,Wunderground v.1.15,2013-02-15 16:05:00,
2013-02-15 11:15:00,51.3,38.7,30.10,South,190,2.0,8.0,62,0.00,,,0.00,519,Wunderground v.1.15,2013-02-15 16:15:00,
2013-02-15 11:20:00,52.0,39.8,30.10,SSW,207,2.0,2.0,63,0.00,,,0.00,543,Wunderground v.1.15,2013-02-15 16:20:00,
2013-02-15 11:25:00,52.6,38.2,30.10,South,177,3.0,5.0,58,0.00,,,0.00,265,Wunderground v.1.15,2013-02-15 16:25:00,
2013-02-15 11:30:00,52.8,38.4,30.09,SSE,150,3.0,3.0,58,0.00,,,0.00,111,Wunderground v.1.15,2013-02-15 16:30:00,
2013-02-15 11:40:00,53.8,37.5,30.09,SW,229,3.0,3.0,54,0.00,,,0.00,512,Wunderground v.1.15,2013-02-15 16:40:00,
2013-02-15 11:45:00,54.3,37.5,30.09,SSW,204,3.0,7.0,53,0.00,,,0.00,341,Wunderground v.1.15,2013-02-15 16:45:00,
2013-02-15 11:50:00,54.6,38.3,30.09,SSW,196,3.0,3.0,54,0.00,,,0.00,482,Wunderground v.1.15,2013-02-15 16:50:00,
2013-02-15 11:55:00,54.8,37.0,30.09,South,184,3.0,3.0,51,0.00,,,0.00,617,Wunderground v.1.15,2013-02-15 16:55:00,
2013-02-15 12:00:00,55.0,37.2,30.08,SSE,167,3.0,3.0,51,0.00,,,0.00,613,Wunderground v.1.15,2013-02-15 17:00:00,
2013-02-15 12:05:00,55.1,37.3,30.08,East,101,2.0,3.0,51,0.00,,,0.00,352,Wunderground v.1.15,2013-02-15 17:05:00,
2013-02-15 12:15:00,55.5,38.1,30.08,WNW,285,1.0,4.0,52,0.00,,,0.00,555,Wunderground v.1.15,2013-02-15 17:15:00,
2013-02-15 12:20:00,55.8,37.4,30.08,NNW,327,1.0,3.0,50,0.00,,,0.00,315,Wunderground v.1.15,2013-02-15 17:20:00,
2013-02-15 12:25:00,56.0,36.6,30.08,SW,236,2.0,3.0,48,0.00,,,0.00,575,Wunderground v.1.15,2013-02-15 17:25:00,
2013-02-15 12:30:00,56.1,36.7,30.08,NNW,340,1.0,4.0,48,0.00,,,0.00,455,Wunderground v.1.15,2013-02-15 17:30:00,
2013-02-15 12:35:00,56.1,36.1,30.08,SSE,157,2.0,4.0,47,0.00,,,0.00,431,Wunderground v.1.15,2013-02-15 17:35:00,
2013-02-15 12:40:00,56.2,37.3,30.08,WNW,299,1.0,1.0,49,0.00,,,0.00,721,Wunderground v.1.15,2013-02-15 17:40:00,
2013-02-15 12:50:00,55.3,37.0,30.07,NNW,333,1.0,1.0,50,0.00,,,0.00,139,Wunderground v.1.15,2013-02-15 17:50:00,
2013-02-15 12:55:00,55.0,37.7,30.07,South,188,1.0,1.0,52,0.00,,,0.00,403,Wunderground v.1.15,2013-02-15 17:55:00,
2013-02-15 13:00:00,54.7,37.4,30.07,SW,232,1.0,1.0,52,0.00,,,0.00,132,Wunderground v.1.15,2013-02-15 18:00:00,
2013-02-15 13:05:00,54.6,37.3,30.07,SW,232,0.0,1.0,52,0.00,,,0.00,165,Wunderground v.1.15,2013-02-15 18:05:00,
2013-02-15 13:15:00,54.4,36.1,30.06,WNW,294,0.0,1.0,50,0.00,,,0.00,156,Wunderground v.1.15,2013-02-15 18:15:00,
2013-02-15 13:25:00,54.3,35.5,30.06,SW,214,0.0,1.0,49,0.00,,,0.00,114,Wunderground v.1.15,2013-02-15 18:25:00,
2013-02-15 13:30:00,54.2,34.9,30.05,NNW,334,1.0,1.0,48,0.00,,,0.00,132,Wunderground v.1.15,2013-02-15 18:30:00,
2013-02-15 13:35:00,54.1,35.9,30.05,NNW,331,1.0,1.0,50,0.00,,,0.00,132,Wunderground v.1.15,2013-02-15 18:35:00,
2013-02-15 13:40:00,54.0,36.3,30.05,NE,45,1.0,1.0,51,0.00,,,0.00,179,Wunderground v.1.15,2013-02-15 18:40:00,
2013-02-15 13:50:00,54.5,35.2,30.04,NNW,336,1.0,1.0,48,0.00,,,0.00,153,Wunderground v.1.15,2013-02-15 18:50:00,
2013-02-15 13:55:00,55.1,35.2,30.04,West,275,1.0,1.0,47,0.00,,,0.00,200,Wunderground v.1.15,2013-02-15 18:55:00,
2013-02-15 14:00:00,55.3,35.9,30.04,South,191,1.0,3.0,48,0.00,,,0.00,127,Wunderground v.1.15,2013-02-15 19:00:00,
2013-02-15 14:05:00,55.3,35.9,30.03,SSW,211,2.0,3.0,48,0.00,,,0.00,701,Wunderground v.1.15,2013-02-15 19:05:00,
2013-02-15 14:15:00,55.8,34.8,30.03,SSE,160,2.0,2.0,45,0.00,,,0.00,153,Wunderground v.1.15,2013-02-15 19:15:00,
2013-02-15 14:25:00,54.9,35.6,30.02,ENE,61,1.0,2.0,48,0.00,,,0.00,42,Wunderground v.1.15,2013-02-15 19:25:00,
2013-02-15 14:30:00,54.4,35.1,30.02,SSW,193,0.0,0.0,48,0.00,,,0.00,46,Wunderground v.1.15,2013-02-15 19:30:00,
2013-02-15 14:35:00,54.0,35.3,30.03,NNE,24,1.0,1.0,49,0.00,,,0.00,49,Wunderground v.1.15,2013-02-15 19:35:00,
2013-02-15 14:40:00,53.4,36.7,30.03,NW,313,1.0,3.0,53,0.00,,,0.00,63,Wunderground v.1.15,2013-02-15 19:40:00,
2013-02-15 14:50:00,52.8,37.1,30.03,NNW,339,1.0,7.0,55,0.00,,,0.00,211,Wunderground v.1.15,2013-02-15 19:50:00,
2013-02-15 14:55:00,52.6,37.3,30.02,NNW,347,3.0,7.0,56,0.00,,,0.00,162,Wunderground v.1.15,2013-02-15 19:55:00,
2013-02-15 15:00:00,52.4,37.6,30.02,North,355,3.0,3.0,57,0.00,,,0.00,102,Wunderground v.1.15,2013-02-15 20:00:00,
2013-02-15 15:05:00,52.3,38.0,30.02,North,355,2.0,3.0,58,0.00,,,0.00,415,Wunderground v.1.15,2013-02-15 20:05:00,
2013-02-15 15:15:00,53.2,37.9,30.01,ESE,105,0.0,0.0,56,0.00,,,0.00,151,Wunderground v.1.15,2013-02-15 20:15:00,
2013-02-15 15:20:00,53.8,39.8,30.01,South,186,1.0,1.0,59,0.00,,,0.00,148,Wunderground v.1.15,2013-02-15 20:20:00,
2013-02-15 15:30:00,54.1,39.2,30.01,SW,217,1.0,1.0,57,0.00,,,0.00,174,Wunderground v.1.15,2013-02-15 20:30:00,
2013-02-15 15:35:00,54.0,38.6,30.01,SW,225,1.0,1.0,56,0.00,,,0.00,102,Wunderground v.1.15,2013-02-15 20:35:00,
2013-02-15 15:40:00,53.5,39.1,30.01,West,263,2.0,2.0,58,0.00,,,0.00,83,Wunderground v.1.15,2013-02-15 20:40:00,
2013-02-15 15:45:00,52.9,38.1,30.01,West,279,2.0,2.0,57,0.00,,,0.00,144,Wunderground v.1.15,2013-02-15 20:45:00,
2013-02-15 15:50:00,52.4,39.3,30.01,ENE,63,2.0,2.0,61,0.00,,,0.00,105,Wunderground v.1.15,2013-02-15 20:50:00,
2013-02-15 15:55:00,51.9,38.9,30.01,SW,225,1.0,2.0,61,0.00,,,0.00,186,Wunderground v.1.15,2013-02-15 20:55:00,
2013-02-15 16:00:00,51.9,38.9,30.01,NNW,334,1.0,2.0,61,0.00,,,0.00,95,Wunderground v.1.15,2013-02-15 21:00:00,
2013-02-15 16:05:00,52.1,38.6,30.01,West,273,1.0,2.0,60,0.00,,,0.00,195,Wunderground v.1.15,2013-02-15 21:05:00,
2013-02-15 16:15:00,52.5,39.0,30.01,South,173,1.0,4.0,60,0.00,,,0.00,130,Wunderground v.1.15,2013-02-15 21:15:00,
2013-02-15 16:20:00,52.5,39.4,30.01,South,182,2.0,4.0,61,0.00,,,0.00,172,Wunderground v.1.15,2013-02-15 21:20:00,
2013-02-15 16:25:00,52.6,39.5,30.01,SW,228,2.0,4.0,61,0.00,,,0.00,51,Wunderground v.1.15,2013-02-15 21:25:00,
2013-02-15 16:30:00,52.5,39.4,30.01,SW,229,1.0,2.0,61,0.00,,,0.00,37,Wunderground v.1.15,2013-02-15 21:30:00,
2013-02-15 16:35:00,52.3,39.2,30.01,NNW,341,0.0,2.0,61,0.00,,,0.00,42,Wunderground v.1.15,2013-02-15 21:35:00,
2013-02-15 16:40:00,52.0,39.4,30.01,NNW,341,0.0,0.0,62,0.00,,,0.00,21,Wunderground v.1.15,2013-02-15 21:40:00,
2013-02-15 16:45:00,51.7,39.9,30.01,NNW,346,1.0,4.0,64,0.00,,,0.00,26,Wunderground v.1.15,2013-02-15 21:45:00,
2013-02-15 16:55:00,50.4,40.2,30.02,NNW,338,4.0,4.0,68,0.00,,,0.00,69,Wunderground v.1.15,2013-02-15 21:55:00,
2013-02-15 17:00:00,49.9,40.5,30.02,NNW,334,3.0,7.0,70,0.00,,,0.00,44,Wunderground v.1.15,2013-02-15 22:00:00,
2013-02-15 17:05:00,49.4,40.7,30.02,NNW,340,6.0,12.0,72,0.00,,,0.00,28,Wunderground v.1.15,2013-02-15 22:05:00,
2013-02-15 17:15:00,47.8,40.3,30.03,NNE,15,9.0,9.0,75,0.00,,,0.00,28,Wunderground v.1.15,2013-02-15 22:15:00,
2013-02-15 17:20:00,46.9,39.7,30.03,NW,318,8.0,8.0,76,0.00,,,0.00,16,Wunderground v.1.15,2013-02-15 22:20:00,
2013-02-15 17:25:00,46.2,39.4,30.04,North,355,8.0,8.0,77,0.00,,,0.00,14,Wunderground v.1.15,2013-02-15 22:25:00,
2013-02-15 17:30:00,45.8,39.3,30.04,NNW,334,7.0,7.0,78,0.00,,,0.00,11,Wunderground v.1.15,2013-02-15 22:30:00,
2013-02-15 17:35:00,45.4,38.9,30.05,NNW,345,5.0,7.0,78,0.00,,,0.00,16,Wunderground v.1.15,2013-02-15 22:35:00,
2013-02-15 17:40:00,45.1,39.0,30.05,NNW,346,5.0,5.0,79,0.00,,,0.00,54,Wunderground v.1.15,2013-02-15 22:40:00,
2013-02-15 17:45:00,45.0,39.2,30.05,NNW,332,4.0,5.0,80,0.00,,,0.00,39,Wunderground v.1.15,2013-02-15 22:45:00,
2013-02-15 17:50:00,44.9,39.1,30.05,NW,324,3.0,5.0,80,0.00,,,0.00,11,Wunderground v.1.15,2013-02-15 22:50:00,
2013-02-15 17:55:00,44.7,38.9,30.05,NNW,331,4.0,6.0,80,0.00,,,0.00,7,Wunderground v.1.15,2013-02-15 22:55:00,
2013-02-15 18:05:00,44.3,38.5,30.06,North,355,5.0,6.0,80,0.00,,,0.00,5,Wunderground v.1.15,2013-02-15 23:05:00,
2013-02-15 18:15:00,44.1,38.6,30.05,NNW,331,6.0,6.0,81,0.00,,,0.00,0,Wunderground v.1.15,2013-02-15 23:15:00,
2013-02-15 18:20:00,43.9,38.4,30.06,NNW,344,5.0,5.0,81,0.00,,,0.00,0,Wunderground v.1.15,2013-02-15 23:20:00,
2013-02-15 18:30:00,43.6,37.8,30.06,NW,326,5.0,8.0,80,0.00,,,0.00,0,Wunderground v.1.15,2013-02-15 23:30:00,
2013-02-15 18:35:00,43.4,37.3,30.06,North,5,6.0,8.0,79,0.00,,,0.00,0,Wunderground v.1.15,2013-02-15 23:35:00,
2013-02-15 18:40:00,43.2,36.8,30.06,North,355,5.0,5.0,78,0.00,,,0.00,0,Wunderground v.1.15,2013-02-15 23:40:00,
2013-02-15 18:45:00,43.1,36.4,30.06,North,355,5.0,5.0,77,0.00,,,0.00,0,Wunderground v.1.15,2013-02-15 23:45:00,
2013-02-15 18:50:00,42.9,35.9,30.06,NW,319,5.0,7.0,76,0.00,,,0.00,0,Wunderground v.1.15,2013-02-15 23:50:00,
2013-02-15 19:00:00,42.7,35.7,30.06,NNW,333,6.0,11.0,76,0.00,,,0.00,0,Wunderground v.1.15,2013-02-16 00:00:00,
2013-02-15 19:05:00,42.4,35.0,30.07,NW,326,6.0,11.0,75,0.00,,,0.00,0,Wunderground v.1.15,2013-02-16 00:05:00,
2013-02-15 19:15:00,42.0,35.0,30.07,NNW,332,5.0,6.0,76,0.00,,,0.00,0,Wunderground v.1.15,2013-02-16 00:15:00,
2013-02-15 19:20:00,41.8,35.1,30.07,North,360,5.0,5.0,77,0.00,,,0.00,0,Wunderground v.1.15,2013-02-16 00:20:00,
2013-02-15 19:25:00,41.5,35.2,30.08,North,9,5.0,5.0,78,0.00,,,0.00,0,Wunderground v.1.15,2013-02-16 00:25:00,
2013-02-15 19:35:00,40.9,35.2,30.08,NNW,348,5.0,10.0,80,0.00,,,0.00,0,Wunderground v.1.15,2013-02-16 00:35:00,
2013-02-15 19:40:00,40.5,35.1,30.08,NNW,332,5.0,5.0,81,0.00,,,0.00,0,Wunderground v.1.15,2013-02-16 00:40:00,
2013-02-15 19:45:00,40.1,35.4,30.08,NNW,340,5.0,5.0,83,0.00,,,0.00,0,Wunderground v.1.15,2013-02-16 00:45:00,
2013-02-15 19:50:00,39.8,35.4,30.08,NNW,346,3.0,3.0,84,0.00,,,0.01,0,Wunderground v.1.15,2013-02-16 00:50:00,
2013-02-15 19:55:00,39.4,35.3,30.08,NNW,328,3.0,3.0,85,0.00,,,0.01,0,Wunderground v.1.15,2013-02-16 00:55:00,
2013-02-15 20:00:00,39.2,35.4,30.08,NNW,328,2.0,2.0,86,0.00,,,0.01,0,Wunderground v.1.15,2013-02-16 01:00:00,
2013-02-15 20:05:00,39.1,35.3,30.09,NNW,344,2.0,4.0,86,0.00,,,0.01,0,Wunderground v.1.15,2013-02-16 01:05:00,
2013-02-15 20:15:00,38.8,35.3,30.08,NNW,344,3.0,3.0,87,0.00,,,0.01,0,Wunderground v.1.15,2013-02-16 01:15:00,
2013-02-15 20:20:00,38.8,35.3,30.08,NNW,344,2.0,3.0,87,0.00,,,0.01,0,Wunderground v.1.15,2013-02-16 01:20:00,
2013-02-15 20:30:00,38.7,35.2,30.08,NNW,344,1.0,1.0,87,0.00,,,0.01,0,Wunderground v.1.15,2013-02-16 01:30:00,
2013-02-15 20:35:00,38.7,35.2,30.08,NNW,342,1.0,1.0,87,0.00,,,0.01,0,Wunderground v.1.15,2013-02-16 01:35:00,
2013-02-15 20:40:00,38.7,35.2,30.08,NNW,342,1.0,1.0,87,0.00,,,0.01,0,Wunderground v.1.15,2013-02-16 01:40:00,
2013-02-15 20:45:00,38.6,35.1,30.08,North,355,1.0,2.0,87,0.00,,,0.01,0,Wunderground v.1.15,2013-02-16 01:45:00,
2013-02-15 20:50:00,38.6,35.1,30.08,North,5,2.0,2.0,87,0.00,,,0.01,0,Wunderground v.1.15,2013-02-16 01:50:00,
2013-02-15 20:55:00,38.6,35.1,30.08,North,5,3.0,3.0,87,0.00,,,0.01,0,Wunderground v.1.15,2013-02-16 01:55:00,
2013-02-15 21:05:00,38.6,35.1,30.08,North,5,1.0,2.0,87,0.00,,,0.01,0,Wunderground v.1.15,2013-02-16 02:05:00,
2013-02-15 21:15:00,38.6,34.8,30.08,NNE,17,1.0,1.0,86,0.00,,,0.01,0,Wunderground v.1.15,2013-02-16 02:15:00,
2013-02-15 21:20:00,38.6,35.1,30.08,NNE,17,0.0,0.0,87,0.00,,,0.01,0,Wunderground v.1.15,2013-02-16 02:20:00,
2013-02-15 21:25:00,38.6,34.8,30.08,NNE,17,0.0,0.0,86,0.00,,,0.01,0,Wunderground v.1.15,2013-02-16 02:25:00,
2013-02-15 21:30:00,38.6,35.1,30.08,NNE,17,0.0,2.0,87,0.00,,,0.01,0,Wunderground v.1.15,2013-02-16 02:30:00,
2013-02-15 21:35:00,38.6,35.1,30.08,NNE,13,1.0,3.0,87,0.00,,,0.01,0,Wunderground v.1.15,2013-02-16 02:35:00,
2013-02-15 21:40:00,38.5,35.0,30.08,NNE,32,3.0,3.0,87,0.00,,,0.01,0,Wunderground v.1.15,2013-02-16 02:40:00,
2013-02-15 21:45:00,38.5,35.0,30.08,NNE,20,4.0,4.0,87,0.00,,,0.01,0,Wunderground v.1.15,2013-02-16 02:45:00,
2013-02-15 21:50:00,38.4,34.9,30.08,NNE,23,4.0,4.0,87,0.00,,,0.01,0,Wunderground v.1.15,2013-02-16 02:50:00,
2013-02-15 22:00:00,38.2,34.7,30.09,NNE,17,3.0,3.0,87,0.00,,,0.01,0,Wunderground v.1.15,2013-02-16 03:00:00,
2013-02-15 22:05:00,38.0,34.2,30.08,NNE,32,2.0,3.0,86,0.00,,,0.01,0,Wunderground v.1.15,2013-02-16 03:05:00,
2013-02-15 22:15:00,37.9,33.8,30.08,NE,34,1.0,2.0,85,0.00,,,0.01,0,Wunderground v.1.15,2013-02-16 03:15:00,
2013-02-15 22:20:00,37.7,33.3,30.08,NE,34,0.0,0.0,84,0.00,,,0.01,0,Wunderground v.1.15,2013-02-16 03:20:00,
2013-02-15 22:30:00,37.5,32.8,30.08,North,5,1.0,1.0,83,0.00,,,0.01,0,Wunderground v.1.15,2013-02-16 03:30:00,
2013-02-15 22:35:00,37.5,32.8,30.08,North,5,1.0,1.0,83,0.00,,,0.01,0,Wunderground v.1.15,2013-02-16 03:35:00,
2013-02-15 22:40:00,37.5,32.8,30.08,North,5,0.0,2.0,83,0.00,,,0.01,0,Wunderground v.1.15,2013-02-16 03:40:00,
2013-02-15 22:45:00,37.4,32.4,30.08,NNE,28,0.0,2.0,82,0.00,,,0.01,0,Wunderground v.1.15,2013-02-16 03:45:00,
2013-02-15 22:50:00,37.4,32.4,30.08,NNE,28,0.0,0.0,82,0.00,,,0.01,0,Wunderground v.1.15,2013-02-16 03:50:00,
2013-02-15 22:55:00,37.3,32.3,30.08,NNE,28,0.0,0.0,82,0.00,,,0.01,0,Wunderground v.1.15,2013-02-16 03:55:00,
2013-02-15 23:00:00,37.1,32.1,30.07,NNE,28,0.0,0.0,82,0.00,,,0.01,0,Wunderground v.1.15,2013-02-16 04:00:00,
2013-02-15 23:10:00,36.9,31.9,30.07,NNE,28,0.0,0.0,82,0.00,,,0.01,0,Wunderground v.1.15,2013-02-16 04:10:00,
2013-02-15 23:15:00,36.8,31.5,30.07,North,355,0.0,3.0,81,0.00,,,0.01,0,Wunderground v.1.15,2013-02-16 04:15:00,
2013-02-15 23:20:00,36.8,31.5,30.07,North,355,1.0,1.0,81,0.00,,,0.01,0,Wunderground v.1.15,2013-02-16 04:20:00,
2013-02-15 23:25:00,36.8,31.2,30.06,North,355,0.0,1.0,80,0.00,,,0.01,0,Wunderground v.1.15,2013-02-16 04:25:00,
2013-02-15 23:30:00,36.7,31.4,30.06,North,355,0.0,0.0,81,0.00,,,0.01,0,Wunderground v.1.15,2013-02-16 04:30:00,
2013-02-15 23:40:00,36.6,31.0,30.06,North,360,1.0,1.0,80,0.00,,,0.01,0,Wunderground v.1.15,2013-02-16 04:40:00,
2013-02-15 23:45:00,36.5,30.9,30.06,North,360,0.0,1.0,80,0.00,,,0.01,0,Wunderground v.1.15,2013-02-16 04:45:00,
2013-02-15 23:50:00,36.4,31.1,30.06,North,360,0.0,0.0,81,0.00,,,0.01,0,Wunderground v.1.15,2013-02-16 04:50:00,
2013-02-15 23:55:00,36.2,30.9,30.05,North,360,0.0,0.0,81,0.00,,,0.01,0,Wunderground v.1.15,2013-02-16 04:55:00,